createdAt,value
2019-05-05T00:00:17.048Z,4.90
2019-05-05T00:01:22.368Z,4.94
2019-05-05T00:02:34.224Z,4.91
2019-05-05T00:03:39.430Z,4.90
2019-05-05T00:05:02.262Z,4.88
2019-05-05T00:06:07.591Z,4.80
2019-05-05T00:07:11.164Z,4.81
2019-05-05T00:08:15.234Z,4.83
2019-05-05T00:09:18.905Z,4.85
2019-05-05T00:10:40.261Z,4.78
2019-05-05T00:11:45.333Z,4.75
2019-05-05T00:12:55.071Z,4.68
2019-05-05T00:14:04.718Z,4.62
2019-05-05T00:15:28.161Z,4.60
2019-05-05T00:16:44.379Z,4.58
2019-05-05T00:17:47.333Z,4.58
2019-05-05T00:18:50.939Z,4.61
2019-05-05T00:19:54.961Z,4.54
2019-05-05T00:20:58.489Z,4.59
2019-05-05T00:22:01.949Z,4.67
2019-05-05T00:23:05.522Z,4.63
2019-05-05T00:24:09.207Z,4.70
2019-05-05T00:25:14.293Z,4.75
2019-05-05T00:26:17.812Z,4.75
2019-05-05T00:27:21.267Z,4.70
2019-05-05T00:28:25.018Z,4.74
2019-05-05T00:29:28.404Z,4.74
2019-05-05T00:30:31.865Z,4.74
2019-05-05T00:31:35.456Z,4.85
2019-05-05T00:32:38.880Z,4.90
2019-05-05T00:33:42.373Z,4.83
2019-05-05T00:34:45.947Z,4.82
2019-05-05T00:35:49.449Z,4.80
2019-05-05T00:36:55.043Z,4.84
2019-05-05T00:37:58.118Z,4.82
2019-05-05T00:39:04.231Z,4.74
2019-05-05T00:40:07.581Z,4.77
2019-05-05T00:41:11.088Z,4.82
2019-05-05T00:42:15.503Z,4.71
2019-05-05T00:43:19.006Z,4.71
2019-05-05T00:44:24.610Z,4.73
2019-05-05T00:45:28.814Z,4.63
2019-05-05T00:46:49.092Z,4.71
2019-05-05T00:47:54.519Z,4.72
2019-05-05T00:48:57.957Z,4.69
2019-05-05T00:50:01.554Z,4.64
2019-05-05T00:51:05.049Z,4.48
2019-05-05T00:52:08.504Z,4.52
2019-05-05T00:53:11.923Z,4.55
2019-05-05T00:54:15.499Z,4.56
2019-05-05T00:55:19.166Z,4.53
2019-05-05T00:56:22.592Z,4.56
2019-05-05T00:57:26.042Z,4.59
2019-05-05T00:58:30.955Z,4.62
2019-05-05T00:59:34.866Z,4.62
2019-05-05T01:00:52.056Z,4.66
2019-05-05T01:01:57.113Z,4.66
2019-05-05T01:03:00.586Z,4.53
2019-05-05T01:04:05.217Z,4.52
2019-05-05T01:05:16.529Z,4.62
2019-05-05T01:06:21.896Z,4.64
2019-05-05T01:07:25.405Z,4.62
2019-05-05T01:08:31.779Z,4.64
2019-05-05T01:09:35.640Z,4.55
2019-05-05T01:10:39.138Z,4.49
2019-05-05T01:11:44.613Z,4.52
2019-05-05T01:12:48.208Z,4.56
2019-05-05T01:13:51.768Z,4.54
2019-05-05T01:14:55.411Z,4.44
2019-05-05T01:15:58.988Z,4.48
2019-05-05T01:17:02.408Z,4.45
2019-05-05T01:18:05.916Z,4.46
2019-05-05T01:19:09.349Z,4.46
2019-05-05T01:20:14.667Z,4.52
2019-05-05T01:21:18.280Z,4.56
2019-05-05T01:22:21.849Z,4.62
2019-05-05T01:23:25.438Z,4.56
2019-05-05T01:24:28.882Z,4.60
2019-05-05T01:25:34.578Z,4.58
2019-05-05T01:26:37.683Z,4.53
2019-05-05T01:27:41.188Z,4.55
2019-05-05T01:28:44.845Z,4.59
2019-05-05T01:29:48.376Z,4.64
2019-05-05T01:30:54.996Z,4.60
2019-05-05T01:31:59.653Z,4.62
2019-05-05T01:33:07.228Z,4.66
2019-05-05T01:34:18.372Z,4.59
2019-05-05T01:35:21.872Z,4.58
2019-05-05T01:36:25.301Z,4.51
2019-05-05T01:37:46.335Z,4.43
2019-05-05T01:39:07.790Z,4.40
2019-05-05T01:40:16.453Z,4.42
2019-05-05T01:41:27.554Z,4.48
2019-05-05T01:42:31.062Z,4.48
2019-05-05T01:43:34.719Z,4.46
2019-05-05T01:44:38.155Z,4.50
2019-05-05T01:45:41.658Z,4.55
2019-05-05T01:46:45.158Z,4.58
2019-05-05T01:47:48.588Z,4.54
2019-05-05T01:48:52.183Z,4.52
2019-05-05T01:49:55.740Z,4.51
2019-05-05T01:50:59.310Z,4.60
2019-05-05T01:52:04.334Z,4.64
2019-05-05T01:53:07.916Z,4.63
2019-05-05T01:54:11.430Z,4.63
2019-05-05T01:55:15.012Z,4.63
2019-05-05T01:56:18.972Z,4.58
2019-05-05T01:57:22.543Z,4.51
2019-05-05T01:58:26.531Z,4.50
2019-05-05T01:59:30.115Z,4.46
2019-05-05T02:00:34.827Z,4.43
2019-05-05T02:01:38.629Z,4.49
2019-05-05T02:02:42.421Z,4.57
2019-05-05T02:03:46.478Z,4.61
2019-05-05T02:04:50.153Z,4.61
2019-05-05T02:05:54.575Z,4.65
2019-05-05T02:06:58.219Z,4.65
2019-05-05T02:08:01.714Z,4.58
2019-05-05T02:09:06.768Z,4.53
2019-05-05T02:10:11.443Z,4.61
2019-05-05T02:11:15.617Z,4.66
2019-05-05T02:12:19.287Z,4.70
2019-05-05T02:13:22.791Z,4.69
2019-05-05T02:14:26.382Z,4.71
2019-05-05T02:15:29.957Z,4.76
2019-05-05T02:16:34.739Z,4.73
2019-05-05T02:17:38.365Z,4.69
2019-05-05T02:18:41.928Z,4.68
2019-05-05T02:19:45.537Z,4.58
2019-05-05T02:20:54.949Z,4.49
2019-05-05T02:21:58.504Z,4.48
2019-05-05T02:23:02.076Z,4.48
2019-05-05T02:24:05.647Z,4.49
2019-05-05T02:25:09.238Z,4.52
2019-05-05T02:26:14.727Z,4.44
2019-05-05T02:27:19.877Z,4.34
2019-05-05T02:28:24.675Z,4.38
2019-05-05T02:29:38.860Z,4.50
2019-05-05T02:30:47.470Z,4.48
2019-05-05T02:32:08.488Z,4.40
2019-05-05T02:33:15.689Z,4.36
2019-05-05T02:34:18.996Z,4.43
2019-05-05T02:35:22.444Z,4.50
2019-05-05T02:36:26.020Z,4.41
2019-05-05T02:37:29.600Z,4.40
2019-05-05T02:38:35.526Z,4.42
2019-05-05T02:39:45.080Z,4.51
2019-05-05T02:40:45.186Z,4.56
2019-05-05T02:41:49.250Z,4.67
2019-05-05T02:42:54.902Z,4.66
2019-05-05T02:43:58.610Z,4.69
2019-05-05T02:45:05.667Z,4.72
2019-05-05T02:46:30.136Z,4.74
2019-05-05T02:47:47.039Z,4.75
2019-05-05T02:48:55.085Z,4.68
2019-05-05T02:50:01.507Z,4.74
2019-05-05T02:51:06.940Z,4.73
2019-05-05T02:52:15.167Z,4.66
2019-05-05T02:53:18.145Z,4.63
2019-05-05T02:54:24.719Z,4.64
2019-05-05T02:55:28.685Z,4.54
2019-05-05T02:56:39.730Z,4.60
2019-05-05T02:57:43.925Z,4.66
2019-05-05T02:58:49.432Z,4.70
2019-05-05T02:59:57.960Z,4.70
2019-05-05T03:01:04.957Z,4.65
2019-05-05T03:02:10.172Z,4.65
2019-05-05T03:03:13.744Z,4.68
2019-05-05T03:04:18.111Z,4.73
2019-05-05T03:05:23.564Z,4.75
2019-05-05T03:06:27.073Z,4.81
2019-05-05T03:07:31.117Z,4.81
2019-05-05T03:08:36.698Z,4.83
2019-05-05T03:09:41.586Z,4.86
2019-05-05T03:10:45.333Z,4.88
2019-05-05T03:11:50.023Z,4.81
2019-05-05T03:12:54.482Z,4.72
2019-05-05T03:14:00.864Z,4.77
2019-05-05T03:15:05.940Z,4.85
2019-05-05T03:16:14.892Z,4.84
2019-05-05T03:17:19.336Z,4.79
2019-05-05T03:18:24.653Z,4.75
2019-05-05T03:19:28.565Z,4.80
2019-05-05T03:20:33.887Z,4.83
2019-05-05T03:21:37.807Z,4.84
2019-05-05T03:22:43.001Z,4.78
2019-05-05T03:23:46.897Z,4.73
2019-05-05T03:24:50.789Z,4.74
2019-05-05T03:25:54.750Z,4.71
2019-05-05T03:26:58.454Z,4.68
2019-05-05T03:28:02.044Z,4.69
2019-05-05T03:29:10.726Z,4.71
2019-05-05T03:30:15.403Z,4.75
2019-05-05T03:31:19.184Z,4.79
2019-05-05T03:32:25.564Z,4.75
2019-05-05T03:33:28.011Z,4.81
2019-05-05T03:34:31.575Z,4.69
2019-05-05T03:35:35.167Z,4.67
2019-05-05T03:36:38.836Z,4.64
2019-05-05T03:37:44.512Z,4.66
2019-05-05T03:38:47.853Z,4.70
2019-05-05T03:39:53.856Z,4.68
2019-05-05T03:40:58.594Z,4.68
2019-05-05T03:42:13.978Z,4.73
2019-05-05T03:43:28.164Z,4.79
2019-05-05T03:44:33.978Z,4.77
2019-05-05T03:45:41.892Z,4.75
2019-05-05T03:46:45.463Z,4.78
2019-05-05T03:47:49.899Z,4.76
2019-05-05T03:48:54.154Z,4.77
2019-05-05T03:49:57.735Z,4.74
2019-05-05T03:51:15.976Z,4.74
2019-05-05T03:52:06.784Z,4.78
2019-05-05T03:53:11.253Z,4.80
2019-05-05T03:54:15.397Z,4.80
2019-05-05T03:55:19.097Z,4.77
2019-05-05T03:56:24.152Z,4.77
2019-05-05T03:57:27.808Z,4.77
2019-05-05T03:58:32.002Z,4.80
2019-05-05T03:59:36.686Z,4.78
2019-05-05T04:01:10.813Z,4.80
2019-05-05T04:02:18.660Z,4.85
2019-05-05T04:03:23.722Z,4.85
2019-05-05T04:04:33.457Z,4.79
2019-05-05T04:05:38.481Z,4.71
2019-05-05T04:06:42.062Z,4.73
2019-05-05T04:07:46.317Z,4.76
2019-05-05T04:08:49.898Z,4.82
2019-05-05T04:09:54.228Z,4.82
2019-05-05T04:10:57.840Z,4.86
2019-05-05T04:12:01.259Z,4.85
2019-05-05T04:13:04.845Z,4.89
2019-05-05T04:14:09.308Z,4.95
2019-05-05T04:15:14.280Z,4.91
2019-05-05T04:16:19.332Z,4.92
2019-05-05T04:17:24.536Z,4.92
2019-05-05T04:18:29.304Z,4.87
2019-05-05T04:19:49.295Z,4.88
2019-05-05T04:20:53.434Z,4.82
2019-05-05T04:21:57.017Z,4.85
2019-05-05T04:23:00.451Z,4.91
2019-05-05T04:24:04.128Z,4.87
2019-05-05T04:25:07.631Z,4.89
2019-05-05T04:26:11.088Z,4.86
2019-05-05T04:27:14.859Z,4.82
2019-05-05T04:28:18.351Z,4.84
2019-05-05T04:29:21.847Z,4.87
2019-05-05T04:30:25.736Z,4.91
2019-05-05T04:31:29.246Z,4.91
2019-05-05T04:32:34.710Z,4.91
2019-05-05T04:33:37.841Z,4.92
2019-05-05T04:34:41.273Z,4.88
2019-05-05T04:35:44.795Z,4.84
2019-05-05T04:36:48.226Z,4.77
2019-05-05T04:37:51.649Z,4.74
2019-05-05T04:38:55.078Z,4.78
2019-05-05T04:39:58.508Z,4.77
2019-05-05T04:41:03.519Z,4.75
2019-05-05T04:42:07.205Z,4.79
2019-05-05T04:43:10.631Z,4.68
2019-05-05T04:44:14.915Z,4.64
2019-05-05T04:45:19.277Z,4.68
2019-05-05T04:46:24.540Z,4.68
2019-05-05T04:47:35.387Z,4.71
2019-05-05T04:48:43.889Z,4.76
2019-05-05T04:49:49.035Z,4.77
2019-05-05T04:50:54.446Z,4.74
2019-05-05T04:51:59.559Z,4.77
2019-05-05T04:53:04.661Z,4.83
2019-05-05T04:54:15.360Z,4.80
2019-05-05T04:55:18.790Z,4.82
2019-05-05T04:56:23.459Z,4.83
2019-05-05T04:57:27.006Z,4.84
2019-05-05T04:58:30.441Z,4.74
2019-05-05T04:59:34.046Z,4.74
2019-05-05T05:00:37.462Z,4.80
2019-05-05T05:01:41.150Z,4.79
2019-05-05T05:03:04.451Z,4.77
2019-05-05T05:04:13.766Z,4.86
2019-05-05T05:05:21.649Z,4.90
2019-05-05T05:06:26.733Z,4.88
2019-05-05T05:07:30.244Z,4.93
2019-05-05T05:08:33.898Z,4.93
2019-05-05T05:09:39.741Z,4.89
2019-05-05T05:10:43.809Z,4.89
2019-05-05T05:11:47.244Z,4.93
2019-05-05T05:12:50.674Z,4.99
2019-05-05T05:13:54.531Z,5.04
2019-05-05T05:14:58.012Z,5.03
2019-05-05T05:16:01.517Z,5.08
2019-05-05T05:17:06.736Z,5.11
2019-05-05T05:18:16.906Z,5.03
2019-05-05T05:19:20.406Z,5.06
2019-05-05T05:20:24.676Z,5.02
2019-05-05T05:21:28.132Z,4.99
2019-05-05T05:22:33.329Z,5.01
2019-05-05T05:23:36.890Z,5.05
2019-05-05T05:24:40.308Z,5.08
2019-05-05T05:25:43.992Z,5.06
2019-05-05T05:26:47.406Z,5.02
2019-05-05T05:27:50.863Z,4.96
2019-05-05T05:28:54.278Z,4.97
2019-05-05T05:29:57.711Z,5.02
2019-05-05T05:31:01.154Z,5.06
2019-05-05T05:32:04.713Z,5.09
2019-05-05T05:33:08.182Z,5.14
2019-05-05T05:34:11.626Z,5.13
2019-05-05T05:35:15.127Z,5.08
2019-05-05T05:36:18.627Z,4.97
2019-05-05T05:37:23.961Z,4.95
2019-05-05T05:38:27.312Z,4.92
2019-05-05T05:39:34.913Z,4.99
2019-05-05T05:40:45.998Z,5.03
2019-05-05T05:41:49.433Z,5.08
2019-05-05T05:42:54.269Z,5.13
2019-05-05T05:44:03.582Z,5.13
2019-05-05T05:45:25.163Z,5.09
2019-05-05T05:46:44.808Z,5.10
2019-05-05T05:47:55.779Z,5.13
2019-05-05T05:49:17.064Z,5.18
2019-05-05T05:50:24.851Z,5.31
2019-05-05T05:51:28.371Z,5.36
2019-05-05T05:52:31.786Z,5.42
2019-05-05T05:53:35.240Z,5.59
2019-05-05T05:54:38.710Z,5.63
2019-05-05T05:55:42.145Z,5.58
2019-05-05T05:56:45.575Z,5.40
2019-05-05T05:57:49.008Z,5.28
2019-05-05T05:58:54.247Z,5.30
2019-05-05T05:59:57.654Z,5.17
2019-05-05T06:01:01.082Z,5.25
2019-05-05T06:02:11.550Z,5.30
2019-05-05T06:03:09.651Z,5.33
2019-05-05T06:04:14.507Z,5.35
2019-05-05T06:05:17.971Z,5.37
2019-05-05T06:06:21.400Z,5.36
2019-05-05T06:07:24.827Z,5.35
2019-05-05T06:08:29.941Z,5.38
2019-05-05T06:09:34.491Z,5.38
2019-05-05T06:10:38.111Z,5.38
2019-05-05T06:11:43.576Z,5.35
2019-05-05T06:12:46.784Z,5.33
2019-05-05T06:13:50.523Z,5.37
2019-05-05T06:14:54.359Z,5.36
2019-05-05T06:15:57.947Z,5.40
2019-05-05T06:17:01.367Z,5.45
2019-05-05T06:18:05.113Z,5.43
2019-05-05T06:19:10.350Z,5.36
2019-05-05T06:20:15.003Z,5.37
2019-05-05T06:21:18.497Z,5.37
2019-05-05T06:22:29.245Z,5.43
2019-05-05T06:23:27.456Z,5.47
2019-05-05T06:24:34.619Z,5.42
2019-05-05T06:25:38.318Z,5.36
2019-05-05T06:26:44.380Z,5.36
2019-05-05T06:27:47.418Z,5.39
2019-05-05T06:28:50.999Z,5.38
2019-05-05T06:29:54.509Z,5.28
2019-05-05T06:30:58.059Z,5.25
2019-05-05T06:32:01.489Z,5.35
2019-05-05T06:33:05.276Z,5.41
2019-05-05T06:34:09.107Z,5.41
2019-05-05T06:35:13.906Z,5.38
2019-05-05T06:36:17.486Z,5.37
2019-05-05T06:37:21.199Z,5.33
2019-05-05T06:38:24.975Z,5.35
2019-05-05T06:39:28.748Z,5.43
2019-05-05T06:40:39.332Z,5.35
2019-05-05T06:41:59.456Z,5.26
2019-05-05T06:43:23.131Z,5.19
2019-05-05T06:44:27.260Z,5.22
2019-05-05T06:45:44.560Z,5.17
2019-05-05T06:47:07.581Z,5.21
2019-05-05T06:48:11.024Z,5.25
2019-05-05T06:49:15.093Z,5.27
2019-05-05T06:50:19.058Z,5.31
2019-05-05T06:51:24.545Z,5.28
2019-05-05T06:52:41.348Z,5.22
2019-05-05T06:53:34.244Z,5.29
2019-05-05T06:54:37.998Z,5.35
2019-05-05T06:55:41.527Z,5.37
2019-05-05T06:56:45.015Z,5.36
2019-05-05T06:57:48.449Z,5.36
2019-05-05T06:58:53.910Z,5.35
2019-05-05T06:59:57.168Z,5.32
2019-05-05T07:01:00.680Z,5.33
2019-05-05T07:02:04.482Z,5.35
2019-05-05T07:03:07.987Z,5.36
2019-05-05T07:04:11.405Z,5.33
2019-05-05T07:05:14.935Z,5.32
2019-05-05T07:06:18.426Z,5.36
2019-05-05T07:07:23.629Z,5.28
2019-05-05T07:08:27.153Z,5.26
2019-05-05T07:09:30.584Z,5.30
2019-05-05T07:10:34.068Z,5.34
2019-05-05T07:11:37.469Z,5.39
2019-05-05T07:12:40.905Z,5.41
2019-05-05T07:13:44.488Z,5.45
2019-05-05T07:14:47.925Z,5.42
2019-05-05T07:15:51.449Z,5.40
2019-05-05T07:16:54.881Z,5.38
2019-05-05T07:17:58.314Z,5.45
2019-05-05T07:19:01.762Z,5.50
2019-05-05T07:20:06.833Z,5.52
2019-05-05T07:21:10.437Z,5.47
2019-05-05T07:22:14.468Z,5.42
2019-05-05T07:23:19.076Z,5.38
2019-05-05T07:24:23.875Z,5.29
2019-05-05T07:25:39.877Z,5.33
2019-05-05T07:26:34.072Z,5.35
2019-05-05T07:27:37.527Z,5.40
2019-05-05T07:28:40.958Z,5.34
2019-05-05T07:29:44.421Z,5.34
2019-05-05T07:30:47.865Z,5.37
2019-05-05T07:31:51.274Z,5.44
2019-05-05T07:32:55.171Z,5.47
2019-05-05T07:33:58.673Z,5.42
2019-05-05T07:35:15.858Z,5.44
2019-05-05T07:36:34.078Z,5.45
2019-05-05T07:37:37.593Z,5.46
2019-05-05T07:38:41.021Z,5.45
2019-05-05T07:39:44.708Z,5.36
2019-05-05T07:40:48.159Z,5.35
2019-05-05T07:41:53.978Z,5.45
2019-05-05T07:42:56.831Z,5.53
2019-05-05T07:44:00.266Z,5.48
2019-05-05T07:45:19.298Z,5.40
2019-05-05T07:46:10.999Z,5.37
2019-05-05T07:47:14.636Z,5.34
2019-05-05T07:48:18.077Z,5.38
2019-05-05T07:49:21.503Z,5.48
2019-05-05T07:50:32.018Z,5.53
2019-05-05T07:51:30.101Z,5.53
2019-05-05T07:52:34.405Z,5.52
2019-05-05T07:53:37.958Z,5.61
2019-05-05T07:54:43.514Z,5.72
2019-05-05T07:55:46.543Z,5.79
2019-05-05T07:56:49.976Z,5.83
2019-05-05T07:57:53.877Z,5.86
2019-05-05T07:58:57.414Z,5.86
2019-05-05T08:00:00.932Z,5.78
2019-05-05T08:01:04.737Z,5.76
2019-05-05T08:02:08.291Z,5.75
2019-05-05T08:03:11.740Z,5.68
2019-05-05T08:04:15.265Z,5.63
2019-05-05T08:05:18.781Z,5.63
2019-05-05T08:06:23.693Z,5.62
2019-05-05T08:07:27.190Z,5.70
2019-05-05T08:08:30.737Z,5.75
2019-05-05T08:09:34.196Z,5.78
2019-05-05T08:10:37.626Z,5.81
2019-05-05T08:11:41.054Z,5.79
2019-05-05T08:12:44.503Z,5.88
2019-05-05T08:13:47.949Z,5.99
2019-05-05T08:14:53.594Z,6.05
2019-05-05T08:16:00.075Z,6.09
2019-05-05T08:17:05.117Z,6.13
2019-05-05T08:18:19.250Z,6.13
2019-05-05T08:19:30.198Z,6.12
2019-05-05T08:20:41.258Z,6.02
2019-05-05T08:21:44.746Z,6.04
2019-05-05T08:22:48.258Z,6.11
2019-05-05T08:23:56.384Z,6.23
2019-05-05T08:25:04.299Z,6.24
2019-05-05T08:26:09.419Z,6.18
2019-05-05T08:27:17.273Z,6.26
2019-05-05T08:28:24.918Z,6.21
2019-05-05T08:29:30.107Z,6.25
2019-05-05T08:30:35.285Z,6.28
2019-05-05T08:31:44.280Z,6.33
2019-05-05T08:32:49.454Z,6.36
2019-05-05T08:33:54.685Z,6.41
2019-05-05T08:35:00.906Z,6.40
2019-05-05T08:36:04.554Z,6.42
2019-05-05T08:37:08.408Z,6.48
2019-05-05T08:38:13.819Z,6.42
2019-05-05T08:39:17.131Z,6.30
2019-05-05T08:40:20.743Z,6.31
2019-05-05T08:41:24.470Z,6.32
2019-05-05T08:42:27.884Z,6.38
2019-05-05T08:43:31.320Z,6.41
2019-05-05T08:44:34.823Z,6.41
2019-05-05T08:45:38.416Z,6.39
2019-05-05T08:46:41.846Z,6.40
2019-05-05T08:47:45.356Z,6.45
2019-05-05T08:48:48.851Z,6.40
2019-05-05T08:49:53.760Z,6.31
2019-05-05T08:50:57.398Z,6.26
2019-05-05T08:52:00.845Z,6.27
2019-05-05T08:53:08.024Z,6.39
2019-05-05T08:54:09.746Z,6.53
2019-05-05T08:55:13.937Z,6.63
2019-05-05T08:56:17.503Z,6.71
2019-05-05T08:57:21.003Z,6.78
2019-05-05T08:58:24.520Z,6.77
2019-05-05T08:59:28.024Z,6.81
2019-05-05T09:00:33.647Z,6.87
2019-05-05T09:01:36.627Z,6.89
2019-05-05T09:02:40.082Z,6.92
2019-05-05T09:03:44.281Z,6.93
2019-05-05T09:04:48.048Z,6.90
2019-05-05T09:05:51.477Z,6.91
2019-05-05T09:06:55.009Z,6.98
2019-05-05T09:07:58.434Z,6.94
2019-05-05T09:09:03.841Z,6.77
2019-05-05T09:10:07.266Z,6.77
2019-05-05T09:11:10.779Z,6.86
2019-05-05T09:12:14.299Z,6.99
2019-05-05T09:13:17.730Z,6.97
2019-05-05T09:14:21.244Z,6.83
2019-05-05T09:15:24.745Z,6.80
2019-05-05T09:16:28.182Z,6.89
2019-05-05T09:17:33.258Z,6.95
2019-05-05T09:18:38.585Z,7.11
2019-05-05T09:19:42.016Z,7.11
2019-05-05T09:20:45.438Z,7.14
2019-05-05T09:21:48.948Z,7.15
2019-05-05T09:22:53.577Z,7.13
2019-05-05T09:24:02.404Z,7.13
2019-05-05T09:25:09.646Z,7.11
2019-05-05T09:26:17.382Z,7.13
2019-05-05T09:27:34.037Z,7.23
2019-05-05T09:28:47.967Z,7.38
2019-05-05T09:29:51.410Z,7.44
2019-05-05T09:30:54.918Z,7.48
2019-05-05T09:31:58.436Z,7.56
2019-05-05T09:33:03.587Z,7.61
2019-05-05T09:34:07.061Z,7.62
2019-05-05T09:35:10.726Z,7.58
2019-05-05T09:36:14.293Z,7.44
2019-05-05T09:37:17.805Z,7.34
2019-05-05T09:38:21.332Z,7.28
2019-05-05T09:39:24.912Z,7.37
2019-05-05T09:40:39.782Z,7.52
2019-05-05T09:41:44.604Z,7.53
2019-05-05T09:42:48.120Z,7.45
2019-05-05T09:43:53.776Z,7.46
2019-05-05T09:44:56.806Z,7.63
2019-05-05T09:46:00.302Z,7.71
2019-05-05T09:47:04.711Z,7.69
2019-05-05T09:48:08.655Z,7.66
2019-05-05T09:49:14.095Z,7.54
2019-05-05T09:50:17.425Z,7.54
2019-05-05T09:51:20.939Z,7.57
2019-05-05T09:52:24.523Z,7.63
2019-05-05T09:53:28.005Z,7.71
2019-05-05T09:54:31.450Z,7.66
2019-05-05T09:55:35.007Z,7.48
2019-05-05T09:56:38.527Z,7.47
2019-05-05T09:57:43.790Z,7.49
2019-05-05T09:58:47.149Z,7.52
2019-05-05T09:59:50.722Z,7.51
2019-05-05T10:00:54.756Z,7.51
2019-05-05T10:01:58.236Z,7.54
2019-05-05T10:03:03.695Z,7.58
2019-05-05T10:04:10.830Z,7.52
2019-05-05T10:05:14.747Z,7.45
2019-05-05T10:06:18.204Z,7.49
2019-05-05T10:07:21.711Z,7.56
2019-05-05T10:08:27.011Z,7.56
2019-05-05T10:09:30.471Z,7.54
2019-05-05T10:10:33.915Z,7.54
2019-05-05T10:11:37.979Z,7.50
2019-05-05T10:12:41.484Z,7.64
2019-05-05T10:13:45.000Z,7.75
2019-05-05T10:14:48.451Z,7.75
2019-05-05T10:15:51.921Z,7.74
2019-05-05T10:16:55.486Z,7.71
2019-05-05T10:17:58.992Z,7.71
2019-05-05T10:19:04.423Z,7.65
2019-05-05T10:20:08.071Z,7.59
2019-05-05T10:21:13.753Z,7.59
2019-05-05T10:22:16.650Z,7.62
2019-05-05T10:23:20.147Z,7.72
2019-05-05T10:24:30.992Z,7.69
2019-05-05T10:25:35.162Z,7.51
2019-05-05T10:26:38.622Z,7.67
2019-05-05T10:27:47.376Z,7.79
2019-05-05T10:28:47.411Z,7.88
2019-05-05T10:29:50.843Z,7.94
2019-05-05T10:30:54.436Z,7.95
2019-05-05T10:31:58.026Z,7.97
2019-05-05T10:33:03.614Z,7.97
2019-05-05T10:34:11.276Z,8.07
2019-05-05T10:35:14.865Z,8.32
2019-05-05T10:36:18.522Z,8.32
2019-05-05T10:37:23.506Z,8.41
2019-05-05T10:38:26.965Z,8.54
2019-05-05T10:39:37.949Z,8.48
2019-05-05T10:40:41.441Z,8.50
2019-05-05T10:41:44.978Z,8.59
2019-05-05T10:42:51.198Z,8.59
2019-05-05T10:43:54.685Z,8.75
2019-05-05T10:44:58.117Z,8.71
2019-05-05T10:46:03.710Z,8.60
2019-05-05T10:47:06.808Z,8.52
2019-05-05T10:48:10.300Z,8.36
2019-05-05T10:49:13.813Z,8.36
2019-05-05T10:50:17.328Z,8.39
2019-05-05T10:51:20.790Z,8.30
2019-05-05T10:52:24.220Z,8.19
2019-05-05T10:53:27.666Z,8.19
2019-05-05T10:54:43.171Z,7.90
2019-05-05T10:55:36.400Z,7.92
2019-05-05T10:56:39.924Z,7.92
2019-05-05T10:57:43.710Z,7.97
2019-05-05T10:58:47.171Z,7.78
2019-05-05T10:59:50.599Z,7.83
2019-05-05T11:00:55.811Z,7.83
2019-05-05T11:01:59.405Z,7.87
2019-05-05T11:03:04.014Z,7.79
2019-05-05T11:04:07.484Z,7.79
2019-05-05T11:05:11.559Z,7.76
2019-05-05T11:06:15.118Z,7.78
2019-05-05T11:07:18.709Z,7.86
2019-05-05T11:08:24.028Z,7.86
2019-05-05T11:09:27.664Z,7.90
2019-05-05T11:10:33.961Z,7.90
2019-05-05T11:11:37.595Z,7.85
2019-05-05T11:12:41.046Z,7.81
2019-05-05T11:13:46.394Z,7.73
2019-05-05T11:14:49.942Z,7.73
2019-05-05T11:15:54.664Z,7.68
2019-05-05T11:16:58.496Z,7.68
2019-05-05T11:18:04.009Z,7.65
2019-05-05T11:19:07.648Z,7.71
2019-05-05T11:20:14.360Z,7.71
2019-05-05T11:21:17.992Z,7.59
2019-05-05T11:22:21.503Z,7.59
2019-05-05T11:23:25.122Z,7.48
2019-05-05T11:24:28.513Z,7.41
2019-05-05T11:25:33.738Z,7.44
2019-05-05T11:26:37.220Z,7.44
2019-05-05T11:27:40.808Z,7.45
2019-05-05T11:28:44.657Z,7.34
2019-05-05T11:30:06.038Z,7.13
2019-05-05T11:31:09.471Z,6.99
2019-05-05T11:32:15.281Z,6.93
2019-05-05T11:33:29.058Z,6.98
2019-05-05T11:34:33.794Z,6.98
2019-05-05T11:35:54.448Z,6.95
2019-05-05T11:37:11.045Z,6.86
2019-05-05T11:38:14.583Z,6.77
2019-05-05T11:39:18.030Z,6.66
2019-05-05T11:40:32.992Z,6.59
2019-05-05T11:41:36.515Z,6.60
2019-05-05T11:42:39.976Z,6.56
2019-05-05T11:43:43.512Z,6.53
2019-05-05T11:44:47.562Z,6.53
2019-05-05T11:45:51.055Z,6.54
2019-05-05T11:46:54.839Z,6.49
2019-05-05T11:47:58.445Z,6.37
2019-05-05T11:49:01.913Z,6.38
2019-05-05T11:50:06.192Z,6.35
2019-05-05T11:51:09.704Z,6.31
2019-05-05T11:52:13.163Z,6.33
2019-05-05T11:53:16.651Z,6.36
2019-05-05T11:54:20.247Z,6.49
2019-05-05T11:55:24.876Z,6.41
2019-05-05T11:56:28.376Z,6.56
2019-05-05T11:57:31.909Z,6.69
2019-05-05T11:58:35.448Z,6.74
2019-05-05T11:59:40.599Z,6.80
2019-05-05T12:00:44.147Z,6.87
2019-05-05T12:01:47.723Z,6.92
2019-05-05T12:02:51.234Z,7.12
2019-05-05T12:03:54.772Z,7.16
2019-05-05T12:04:58.222Z,7.29
2019-05-05T12:06:03.784Z,7.39
2019-05-05T12:07:06.969Z,7.43
2019-05-05T12:08:10.580Z,7.45
2019-05-05T12:09:18.165Z,7.36
2019-05-05T12:10:23.697Z,7.35
2019-05-05T12:11:27.207Z,7.35
2019-05-05T12:12:30.648Z,7.41
2019-05-05T12:13:34.238Z,7.38
2019-05-05T12:14:37.770Z,7.38
2019-05-05T12:15:44.620Z,7.39
2019-05-05T12:16:48.192Z,7.58
2019-05-05T12:17:51.757Z,7.58
2019-05-05T12:18:55.274Z,7.58
2019-05-05T12:19:58.725Z,7.61
2019-05-05T12:21:02.227Z,7.66
2019-05-05T12:22:05.744Z,7.72
2019-05-05T12:23:09.339Z,7.71
2019-05-05T12:24:14.455Z,7.71
2019-05-05T12:25:35.699Z,7.67
2019-05-05T12:26:40.842Z,7.69
2019-05-05T12:28:00.486Z,7.69
2019-05-05T12:29:05.927Z,7.72
2019-05-05T12:30:09.886Z,7.83
2019-05-05T12:31:24.753Z,7.83
2019-05-05T12:32:28.330Z,7.72
2019-05-05T12:33:33.633Z,7.84
2019-05-05T12:34:37.148Z,7.91
2019-05-05T12:35:40.678Z,7.96
2019-05-05T12:36:44.632Z,8.00
2019-05-05T12:37:48.116Z,7.94
2019-05-05T12:38:51.647Z,7.88
2019-05-05T12:39:55.155Z,7.89
2019-05-05T12:40:58.689Z,7.78
2019-05-05T12:42:04.613Z,7.78
2019-05-05T12:43:07.342Z,7.77
2019-05-05T12:44:14.281Z,7.91
2019-05-05T12:45:19.705Z,8.10
2019-05-05T12:46:30.887Z,8.17
2019-05-05T12:47:36.109Z,8.19
2019-05-05T12:48:43.703Z,8.32
2019-05-05T12:49:46.703Z,8.32
2019-05-05T12:50:50.137Z,8.18
2019-05-05T12:51:54.149Z,8.18
2019-05-05T12:52:57.604Z,8.14
2019-05-05T12:54:01.108Z,8.25
2019-05-05T12:55:05.985Z,8.25
2019-05-05T12:56:09.578Z,8.36
2019-05-05T12:57:13.744Z,8.38
2019-05-05T12:58:17.183Z,8.34
2019-05-05T12:59:22.275Z,8.34
2019-05-05T13:00:26.012Z,8.39
2019-05-05T13:01:34.243Z,8.36
2019-05-05T13:02:37.767Z,8.55
2019-05-05T13:03:43.600Z,8.66
2019-05-05T13:04:46.525Z,8.66
2019-05-05T13:05:50.057Z,8.74
2019-05-05T13:06:54.155Z,8.74
2019-05-05T13:07:57.629Z,8.74
2019-05-05T13:09:01.188Z,8.72
2019-05-05T13:10:06.912Z,8.65
2019-05-05T13:11:10.507Z,8.73
2019-05-05T13:12:14.989Z,8.77
2019-05-05T13:13:18.778Z,8.82
2019-05-05T13:14:22.450Z,8.79
2019-05-05T13:15:26.237Z,8.76
2019-05-05T13:16:29.866Z,8.74
2019-05-05T13:17:33.961Z,8.75
2019-05-05T13:18:37.428Z,8.74
2019-05-05T13:19:45.387Z,8.79
2019-05-05T13:20:56.547Z,8.76
2019-05-05T13:22:13.514Z,8.79
2019-05-05T13:23:24.785Z,8.75
2019-05-05T13:24:29.936Z,8.76
2019-05-05T13:25:35.023Z,8.51
2019-05-05T13:26:40.112Z,8.33
2019-05-05T13:27:45.344Z,8.28
2019-05-05T13:28:48.911Z,8.25
2019-05-05T13:29:53.610Z,8.15
2019-05-05T13:30:57.186Z,8.07
2019-05-05T13:32:00.641Z,8.06
2019-05-05T13:33:04.232Z,8.00
2019-05-05T13:34:07.812Z,7.96
2019-05-05T13:35:11.489Z,7.91
2019-05-05T13:36:14.933Z,7.92
2019-05-05T13:37:18.524Z,7.65
2019-05-05T13:38:23.931Z,7.58
2019-05-05T13:39:27.261Z,7.56
2019-05-05T13:40:30.873Z,7.53
2019-05-05T13:41:34.324Z,7.24
2019-05-05T13:42:37.804Z,7.24
2019-05-05T13:43:41.315Z,7.28
2019-05-05T13:44:49.448Z,7.16
2019-05-05T13:46:14.012Z,7.02
2019-05-05T13:47:17.740Z,6.92
2019-05-05T13:48:21.190Z,6.82
2019-05-05T13:49:29.100Z,6.67
2019-05-05T13:50:37.301Z,6.65
2019-05-05T13:51:40.746Z,6.65
2019-05-05T13:52:44.300Z,6.55
2019-05-05T13:53:47.841Z,6.60
2019-05-05T13:54:51.263Z,6.51
2019-05-05T13:56:08.182Z,6.44
2019-05-05T13:57:00.147Z,6.29
2019-05-05T13:58:03.991Z,6.33
2019-05-05T13:59:07.612Z,6.35
2019-05-05T14:00:14.159Z,6.36
2019-05-05T14:01:17.643Z,6.48
2019-05-05T14:02:21.147Z,6.56
2019-05-05T14:03:24.688Z,6.60
2019-05-05T14:04:28.194Z,6.64
2019-05-05T14:05:31.769Z,6.68
2019-05-05T14:06:35.405Z,6.72
2019-05-05T14:07:38.866Z,6.77
2019-05-05T14:08:44.606Z,6.75
2019-05-05T14:09:47.621Z,6.73
2019-05-05T14:10:51.076Z,6.79
2019-05-05T14:11:54.750Z,6.89
2019-05-05T14:12:58.186Z,6.91
2019-05-05T14:14:01.799Z,7.00
2019-05-05T14:15:06.440Z,7.08
2019-05-05T14:16:10.085Z,7.11
2019-05-05T14:17:14.767Z,7.16
2019-05-05T14:18:18.246Z,7.21
2019-05-05T14:19:21.803Z,7.35
2019-05-05T14:20:25.564Z,7.54
2019-05-05T14:21:29.068Z,7.85
2019-05-05T14:22:34.444Z,8.28
2019-05-05T14:23:43.848Z,8.56
2019-05-05T14:24:49.060Z,8.55
2019-05-05T14:25:54.429Z,8.86
2019-05-05T14:26:58.177Z,8.86